Time;durP1;ratioP1;P1;durP2;ratioP2;P2;SDS_P1;SDS_P2;PMS_P1;PMS_P2;Temp;Humidity;BMP_temperature;BMP_pressure;BME280_temperature;BME280_humidity;BME280_pressure;Samples;Min_cycle;Max_cycle;Signal;HPM_P1;HPM_P2
2024/01/22 00:00:10;;;;;;;89.95;40.20;;;;;;;-8.14;100.00;101458.75;5113218;28;20102;-73
2024/01/22 00:02:36;;;;;;;75.00;38.03;;;;;;;-8.26;100.00;101458.19;5112153;28;20542;-73
2024/01/22 00:05:02;;;;;;;64.47;32.28;;;;;;;-8.72;100.00;101467.44;5113131;28;20035;-72
2024/01/22 00:07:27;;;;;;;69.55;32.42;;;;;;;-8.38;100.00;101472.03;5111786;28;20036;-72
2024/01/22 00:09:53;;;;;;;70.13;34.28;;;;;;;-8.71;100.00;101471.84;5113156;28;20076;-72
2024/01/22 00:12:18;;;;;;;70.35;32.80;;;;;;;-8.49;100.00;101480.44;5113093;28;20027;-72
2024/01/22 00:14:44;;;;;;;88.63;37.20;;;;;;;-8.42;100.00;101475.22;5112329;28;20065;-73
2024/01/22 00:17:10;;;;;;;86.22;33.72;;;;;;;-8.20;100.00;101471.97;5111422;28;20027;-73
2024/01/22 00:19:35;;;;;;;56.55;26.48;;;;;;;-8.75;100.00;101475.91;5112247;28;20035;-72
2024/01/22 00:22:01;;;;;;;46.75;25.65;;;;;;;-8.78;100.00;101478.94;5112889;28;20051;-72
2024/01/22 00:24:26;;;;;;;49.08;23.88;;;;;;;-8.74;100.00;101480.31;5112337;28;20035;-72
2024/01/22 00:26:52;;;;;;;48.97;22.52;;;;;;;-8.57;100.00;101475.00;5112811;28;20027;-72
2024/01/22 00:29:17;;;;;;;52.47;22.88;;;;;;;-8.67;100.00;101475.09;5110205;28;20027;-72
2024/01/22 00:31:43;;;;;;;44.90;22.30;;;;;;;-8.33;100.00;101475.13;5109568;28;20035;-73
2024/01/22 00:34:08;;;;;;;46.17;23.65;;;;;;;-8.40;100.00;101473.19;5105615;28;20421;-73
2024/01/22 00:36:34;;;;;;;46.35;22.00;;;;;;;-8.09;100.00;101478.97;5112508;28;20031;-73
2024/01/22 00:38:59;;;;;;;45.28;23.42;;;;;;;-7.57;100.00;101479.88;5110834;28;20751;-74
2024/01/22 00:41:24;;;;;;;53.38;25.15;;;;;;;-7.27;100.00;101479.44;5112566;28;20027;-73
2024/01/22 00:43:50;;;;;;;49.00;24.65;;;;;;;-7.03;100.00;101484.03;5111211;28;20038;-73
2024/01/22 00:46:15;;;;;;;43.83;23.45;;;;;;;-6.93;100.00;101484.72;5110493;28;20031;-73
2024/01/22 00:48:41;;;;;;;42.28;23.25;;;;;;;-6.60;100.00;101483.84;5100889;28;20035;-74
2024/01/22 00:51:06;;;;;;;43.70;22.50;;;;;;;-6.57;100.00;101483.53;5092067;28;20028;-73
2024/01/22 00:53:32;;;;;;;49.45;23.85;;;;;;;-6.85;100.00;101483.88;5106553;28;20027;-73
2024/01/22 00:55:58;;;;;;;48.05;23.75;;;;;;;-7.21;100.00;101482.34;5109739;28;20036;-74
2024/01/22 00:58:23;;;;;;;47.00;24.15;;;;;;;-7.04;100.00;101490.50;5110816;28;20055;-73
2024/01/22 01:00:48;;;;;;;45.17;23.10;;;;;;;-6.65;100.00;101481.66;5110614;28;20031;-73
2024/01/22 01:03:14;;;;;;;41.42;23.15;;;;;;;-6.43;100.00;101484.69;5112433;28;20160;-73
2024/01/22 01:05:39;;;;;;;65.93;28.30;;;;;;;-6.48;100.00;101487.09;5110790;28;20028;-73
2024/01/22 01:08:05;;;;;;;49.65;24.55;;;;;;;-6.43;100.00;101481.97;5109319;28;20032;-73
2024/01/22 01:10:31;;;;;;;45.08;20.38;;;;;;;-7.33;100.00;101483.66;5112369;28;20028;-74
2024/01/22 01:12:56;;;;;;;49.50;24.52;;;;;;;-7.51;100.00;101479.19;5104406;28;20030;-72
2024/01/22 01:15:24;;;;;;;47.95;23.85;;;;;;;-7.03;100.00;101477.75;5111410;28;20092;-73
2024/01/22 01:17:49;;;;;;;47.67;22.00;;;;;;;-6.94;100.00;101474.00;5110205;28;20032;-73
2024/01/22 01:20:15;;;;;;;46.15;23.50;;;;;;;-6.95;100.00;101467.72;5112060;28;20096;-72
2024/01/22 01:22:40;;;;;;;49.85;23.38;;;;;;;-7.57;100.00;101460.84;5108132;28;20039;-73
2024/01/22 01:25:06;;;;;;;46.42;22.95;;;;;;;-7.98;100.00;101463.41;5099237;28;20035;-74
2024/01/22 01:27:31;;;;;;;48.90;25.20;;;;;;;-7.47;100.00;101472.44;5109603;28;20020;-72
2024/01/22 01:29:57;;;;;;;52.70;28.38;;;;;;;-7.15;100.00;101469.06;5114030;28;20024;-73
2024/01/22 01:32:22;;;;;;;50.83;27.05;;;;;;;-7.15;100.00;101469.06;5115071;28;20031;-73
2024/01/22 01:34:48;;;;;;;55.17;26.90;;;;;;;-7.16;100.00;101472.81;5115463;28;20027;-72
2024/01/22 01:37:13;;;;;;;53.03;26.17;;;;;;;-7.90;100.00;101463.44;5115946;28;20036;-73
2024/01/22 01:39:38;;;;;;;49.78;23.75;;;;;;;-8.02;100.00;101467.47;5101929;28;20076;-72
2024/01/22 01:42:04;;;;;;;48.75;24.38;;;;;;;-7.79;100.00;101467.72;5108270;28;20023;-72
2024/01/22 01:44:51;;;;;;;43.72;22.75;;;;;;;-7.57;100.00;101466.28;5112099;28;20064;-73
2024/01/22 01:47:17;;;;;;;51.95;24.35;;;;;;;-7.34;100.00;101460.22;5095447;28;20488;-74
2024/01/22 01:49:44;;;;;;;50.35;23.25;;;;;;;-7.33;100.00;101456.47;5104075;28;20020;-73
2024/01/22 01:52:12;;;;;;;61.08;25.85;;;;;;;-7.54;100.00;101449.63;5113686;28;20496;-72
2024/01/22 01:54:38;;;;;;;64.10;31.45;;;;;;;-7.58;100.00;101448.28;5115806;28;20029;-73
2024/01/22 01:57:08;;;;;;;172.32;80.95;;;;;;;-7.41;100.00;101456.44;5111840;28;20018;-73
2024/01/22 01:59:38;;;;;;;194.55;92.30;;;;;;;-7.38;100.00;101447.94;5115692;28;20080;-73
2024/01/22 02:02:03;;;;;;;137.85;69.47;;;;;;;-7.41;100.00;101448.28;5110018;28;20476;-72
2024/01/22 02:04:30;;;;;;;65.70;35.55;;;;;;;-7.35;100.00;101447.63;5093419;28;20043;-72
2024/01/22 02:06:56;;;;;;;46.25;24.10;;;;;;;-7.40;100.00;101450.84;5104100;28;20518;-73
2024/01/22 02:09:21;;;;;;;42.35;22.58;;;;;;;-7.19;100.00;101447.66;5114490;27;20106;-72
2024/01/22 02:11:46;;;;;;;46.40;23.73;;;;;;;-7.11;100.00;101451.41;5114679;27;20116;-72
2024/01/22 02:14:12;;;;;;;40.42;20.88;;;;;;;-7.12;100.00;101455.97;5108092;28;20031;-72
2024/01/22 02:16:37;;;;;;;61.00;26.60;;;;;;;-7.02;100.00;101460.41;5114429;28;20080;-72
2024/01/22 02:19:03;;;;;;;49.50;25.00;;;;;;;-6.85;100.00;101448.50;5100915;28;20027;-72
2024/01/22 02:21:28;;;;;;;58.35;30.90;;;;;;;-6.92;100.00;101440.16;5104034;28;20020;-71
2024/01/22 02:23:54;;;;;;;54.58;29.92;;;;;;;-7.21;100.00;101443.38;5107865;28;20035;-74
2024/01/22 02:26:19;;;;;;;44.75;22.83;;;;;;;-7.62;100.00;101445.03;5108222;28;20027;-72
2024/01/22 02:28:45;;;;;;;38.85;19.60;;;;;;;-7.77;100.00;101446.69;5113236;28;20526;-72
2024/01/22 02:31:10;;;;;;;37.58;18.98;;;;;;;-8.04;100.00;101443.19;5107785;28;20020;-72
2024/01/22 02:33:36;;;;;;;39.45;19.00;;;;;;;-8.14;100.00;101448.75;5111360;28;20055;-72
2024/01/22 02:36:01;;;;;;;40.55;19.33;;;;;;;-8.36;100.00;101439.31;5105694;28;20053;-71
2024/01/22 02:38:26;;;;;;;39.80;18.45;;;;;;;-8.63;100.00;101446.63;5114861;28;20019;-71
2024/01/22 02:40:52;;;;;;;37.22;17.17;;;;;;;-8.39;100.00;101440.47;5113151;28;20080;-70
2024/01/22 02:43:18;;;;;;;37.05;18.85;;;;;;;-8.27;100.00;101443.75;5097192;28;20120;-70
2024/01/22 02:45:43;;;;;;;38.88;17.20;;;;;;;-7.84;100.00;101438.34;5111785;28;20034;-71
2024/01/22 02:48:09;;;;;;;32.00;18.52;;;;;;;-7.69;100.00;101443.16;5112611;28;20102;-70
2024/01/22 02:50:34;;;;;;;39.42;18.55;;;;;;;-7.66;100.00;101448.25;5113586;28;20036;-70
2024/01/22 02:53:00;;;;;;;31.73;17.95;;;;;;;-7.71;100.00;101448.72;5096697;28;20062;-70
2024/01/22 02:55:25;;;;;;;34.45;17.05;;;;;;;-7.70;100.00;101434.13;5098422;28;20089;-70
2024/01/22 02:57:51;;;;;;;35.05;17.23;;;;;;;-7.64;100.00;101438.91;5114763;28;20080;-70
2024/01/22 03:00:17;;;;;;;33.10;17.17;;;;;;;-7.64;100.00;101444.34;5112347;28;20035;-70
2024/01/22 03:02:43;;;;;;;37.53;17.27;;;;;;;-7.42;100.00;101442.03;5102647;28;20023;-70
2024/01/22 03:05:08;;;;;;;39.72;19.38;;;;;;;-7.37;100.00;101444.22;5112728;28;20027;-70
2024/01/22 03:07:34;;;;;;;42.25;19.80;;;;;;;-7.49;100.00;101441.81;5105973;28;20119;-70
2024/01/22 03:09:59;;;;;;;46.20;21.98;;;;;;;-7.62;100.00;101439.59;5107076;28;20472;-70
2024/01/22 03:12:25;;;;;;;42.47;21.15;;;;;;;-7.88;100.00;101436.13;5112681;27;20031;-71
2024/01/22 03:14:50;;;;;;;34.35;18.48;;;;;;;-8.06;100.00;101446.06;5092462;28;20031;-69
2024/01/22 03:17:16;;;;;;;37.42;19.48;;;;;;;-8.23;100.00;101447.00;5093787;28;20056;-71
2024/01/22 03:19:41;;;;;;;42.97;20.55;;;;;;;-8.00;100.00;101454.56;5093982;28;20039;-69
2024/01/22 03:22:06;;;;;;;45.67;22.15;;;;;;;-7.91;100.00;101449.00;5108647;28;20407;-70
2024/01/22 03:24:32;;;;;;;33.95;19.88;;;;;;;-8.30;100.00;101444.06;5111099;28;20031;-71
2024/01/22 03:26:57;;;;;;;46.13;23.60;;;;;;;-8.48;100.00;101446.88;5114087;28;20027;-71
2024/01/22 03:29:23;;;;;;;50.63;24.45;;;;;;;-8.73;100.00;101460.31;5113084;28;20479;-69
2024/01/22 03:31:49;;;;;;;51.33;23.55;;;;;;;-8.96;100.00;101449.13;5109263;27;20085;-70
2024/01/22 03:34:15;;;;;;;51.80;23.45;;;;;;;-9.09;100.00;101460.34;5112232;28;20028;-69
2024/01/22 03:36:40;;;;;;;40.60;21.27;;;;;;;-9.17;100.00;101464.72;5112836;28;20502;-69
2024/01/22 03:39:06;;;;;;;44.60;23.02;;;;;;;-9.20;100.00;101475.84;5112570;28;20036;-70
2024/01/22 03:41:32;;;;;;;43.13;19.73;;;;;;;-9.06;100.00;101465.47;5112282;28;20035;-69
2024/01/22 03:43:57;;;;;;;44.67;20.33;;;;;;;-9.04;100.00;101461.59;5112056;28;20026;-69
2024/01/22 03:46:23;;;;;;;38.65;18.83;;;;;;;-8.65;100.00;101473.94;5112630;28;20387;-71
2024/01/22 03:48:49;;;;;;;42.72;20.08;;;;;;;-8.94;100.00;101461.50;5102063;28;20494;-71
2024/01/22 03:51:14;;;;;;;47.28;22.58;;;;;;;-9.27;100.00;101474.78;5113497;28;20031;-73
2024/01/22 03:53:40;;;;;;;39.45;19.55;;;;;;;-9.26;100.00;101465.66;5111340;28;20024;-71
2024/01/22 03:56:06;;;;;;;38.92;20.05;;;;;;;-9.36;100.00;101460.28;5111596;28;20028;-72
2024/01/22 03:58:33;;;;;;;40.17;20.48;;;;;;;-9.38;100.00;101459.59;5105004;28;20031;-73
2024/01/22 04:00:59;;;;;;;42.05;19.73;;;;;;;-9.25;100.00;101467.34;5111505;28;20041;-73
2024/01/22 04:03:24;;;;;;;40.65;19.77;;;;;;;-8.62;100.00;101468.19;5112376;28;20434;-73
2024/01/22 04:05:49;;;;;;;40.78;19.95;;;;;;;-8.41;100.00;101464.22;5113137;28;20034;-72
2024/01/22 04:08:15;;;;;;;43.10;20.63;;;;;;;-8.41;100.00;101464.22;5111833;28;20019;-73
2024/01/22 04:10:40;;;;;;;48.25;23.50;;;;;;;-8.75;100.00;101465.03;5108433;28;20169;-72
2024/01/22 04:13:06;;;;;;;52.25;23.65;;;;;;;-9.20;100.00;101470.44;5111132;28;20027;-71
2024/01/22 04:15:32;;;;;;;44.75;21.67;;;;;;;-8.97;100.00;101480.81;5111740;28;20031;-72
2024/01/22 04:17:58;;;;;;;36.50;19.83;;;;;;;-8.84;100.00;101482.25;5113154;28;20027;-71
2024/01/22 04:20:23;;;;;;;44.92;19.90;;;;;;;-8.76;100.00;101485.06;5111093;28;20066;-72
2024/01/22 04:22:51;;;;;;;44.95;20.83;;;;;;;-8.53;100.00;101481.81;5110015;28;20445;-71
2024/01/22 04:25:16;;;;;;;49.85;23.55;;;;;;;-8.55;100.00;101484.69;5105924;28;20028;-72
2024/01/22 04:27:42;;;;;;;46.88;20.85;;;;;;;-8.55;100.00;101486.56;5106278;28;20377;-71
2024/01/22 04:30:08;;;;;;;42.78;21.05;;;;;;;-8.33;100.00;101485.13;5110198;28;20148;-71
2024/01/22 04:32:33;;;;;;;43.20;21.65;;;;;;;-8.11;100.00;101483.72;5110772;28;20192;-72
2024/01/22 04:34:59;;;;;;;49.42;21.90;;;;;;;-8.38;100.00;101480.19;5111020;28;20031;-71
2024/01/22 04:37:24;;;;;;;42.83;22.83;;;;;;;-8.55;100.00;101486.56;5111677;28;20483;-72
2024/01/22 04:39:50;;;;;;;45.53;20.45;;;;;;;-8.67;100.00;101491.38;5111870;28;20024;-71
2024/01/22 04:42:20;;;;;;;46.58;22.70;;;;;;;-8.86;100.00;101492.41;5111296;28;20076;-71
2024/01/22 04:44:45;;;;;;;43.38;22.05;;;;;;;-9.24;100.00;101485.31;5106468;28;20421;-71
2024/01/22 04:47:11;;;;;;;47.63;21.63;;;;;;;-9.14;100.00;101478.97;5096947;28;20111;-71
2024/01/22 04:49:36;;;;;;;45.42;21.90;;;;;;;-9.11;100.00;101486.78;5111068;28;20569;-70
2024/01/22 04:52:01;;;;;;;51.97;25.08;;;;;;;-9.01;100.00;101482.13;5110927;28;20028;-71
2024/01/22 04:54:27;;;;;;;71.60;33.78;;;;;;;-8.99;100.00;101484.66;5108059;28;20019;-71
2024/01/22 04:56:54;;;;;;;94.25;47.83;;;;;;;-9.04;100.00;101490.59;5111434;28;20038;-70
2024/01/22 04:59:19;;;;;;;92.28;47.45;;;;;;;-9.01;100.00;101484.84;5111979;28;20106;-70
2024/01/22 05:01:45;;;;;;;89.03;44.22;;;;;;;-8.80;100.00;101487.22;5111730;28;20104;-70
2024/01/22 05:04:10;;;;;;;70.68;33.90;;;;;;;-8.78;100.00;101478.94;5106190;28;20028;-70
2024/01/22 05:06:36;;;;;;;65.22;30.70;;;;;;;-8.68;100.00;101486.97;5107595;28;20463;-70
2024/01/22 05:09:01;;;;;;;68.05;32.25;;;;;;;-8.33;100.00;101483.25;5110481;28;20519;-70
2024/01/22 05:11:27;;;;;;;65.35;31.00;;;;;;;-8.41;100.00;101487.78;5109962;28;20077;-70
2024/01/22 05:13:54;;;;;;;62.03;27.42;;;;;;;-8.44;100.00;101488.97;5110701;28;20028;-70
2024/01/22 05:16:21;;;;;;;50.28;24.13;;;;;;;-8.49;100.00;101491.31;5110991;28;20070;-70
2024/01/22 05:18:48;;;;;;;50.55;25.10;;;;;;;-8.73;100.00;101492.03;5093634;28;20545;-70
2024/01/22 05:21:14;;;;;;;50.40;22.88;;;;;;;-8.76;100.00;101488.59;5091495;28;20114;-70
2024/01/22 05:23:41;;;;;;;43.95;21.90;;;;;;;-9.14;100.00;101503.38;5090430;28;20527;-70
2024/01/22 05:26:08;;;;;;;43.90;21.58;;;;;;;-9.25;100.00;101505.31;5097582;28;20043;-70
2024/01/22 05:28:34;;;;;;;48.97;22.65;;;;;;;-9.45;100.00;101510.00;5106749;28;20047;-70
2024/01/22 05:31:00;;;;;;;58.15;25.90;;;;;;;-9.61;100.00;101497.13;5093249;28;20019;-70
2024/01/22 05:33:27;;;;;;;83.75;39.45;;;;;;;-9.73;100.00;101501.88;5109230;28;20028;-71
2024/01/22 05:35:52;;;;;;;112.07;49.92;;;;;;;-9.61;100.00;101495.25;5110611;28;20403;-71
2024/01/22 05:38:22;;;;;;;87.65;41.63;;;;;;;-9.77;100.00;101511.34;5106016;28;20031;-69
2024/01/22 05:40:48;;;;;;;;;;;;;;;-9.91;100.00;101507.25;5101290;28;20023;-71
2024/01/22 05:43:13;;;;;;;77.15;34.55;;;;;;;-9.87;100.00;101511.38;5094498;28;20303;-70
2024/01/22 05:45:42;;;;;;;75.22;30.65;;;;;;;-10.13;100.00;101500.38;5103037;28;20114;-71
2024/01/22 05:48:09;;;;;;;63.70;28.40;;;;;;;-10.21;100.00;101490.28;5109701;28;20112;-71
2024/01/22 05:50:35;;;;;;;56.65;26.80;;;;;;;-10.20;100.00;101494.69;5106550;28;20089;-71
2024/01/22 05:53:00;;;;;;;68.75;33.15;;;;;;;-10.26;100.00;101493.44;5106218;28;20036;-69
2024/01/22 05:55:28;;;;;;;59.45;30.48;;;;;;;-10.40;100.00;101499.34;5106785;28;20027;-69
2024/01/22 05:57:54;;;;;;;57.47;30.73;;;;;;;-10.36;100.00;101495.31;5109528;28;20084;-69
2024/01/22 06:00:20;;;;;;;64.57;31.17;;;;;;;-10.18;100.00;101495.41;5090926;28;20531;-70
2024/01/22 06:02:45;;;;;;;76.38;36.92;;;;;;;-10.68;100.00;101488.44;5089605;28;20044;-70
2024/01/22 06:05:12;;;;;;;61.45;30.30;;;;;;;-10.40;100.00;101508.28;5104379;28;20059;-70
2024/01/22 06:07:38;;;;;;;69.32;32.88;;;;;;;-10.12;100.00;101502.94;5107451;28;20034;-70
2024/01/22 06:10:05;;;;;;;63.83;29.55;;;;;;;-9.98;100.00;101503.47;5106956;28;20414;-70
2024/01/22 06:12:31;;;;;;;64.57;33.60;;;;;;;-9.95;100.00;101511.28;5105782;28;20083;-69
2024/01/22 06:14:57;;;;;;;71.07;33.25;;;;;;;-9.75;100.00;101512.03;5107661;28;20427;-69
2024/01/22 06:17:23;;;;;;;71.32;32.70;;;;;;;-9.54;100.00;101513.63;5098637;28;20039;-69
2024/01/22 06:19:49;;;;;;;54.22;28.23;;;;;;;-9.95;100.00;101519.41;5098453;28;20038;-68
2024/01/22 06:22:15;;;;;;;68.20;31.85;;;;;;;-10.12;100.00;101512.91;5110618;28;20048;-68
2024/01/22 06:24:40;;;;;;;62.38;34.15;;;;;;;-10.13;100.00;101517.50;5112197;28;20423;-66
2024/01/22 06:27:06;;;;;;;79.85;35.75;;;;;;;-10.01;100.00;101521.72;5107671;28;20516;-69
2024/01/22 06:29:35;;;;;;;85.80;36.95;;;;;;;-9.78;100.00;101526.72;5111596;28;20495;-67
2024/01/22 06:32:03;;;;;;;84.55;36.97;;;;;;;-9.59;100.00;101517.66;5109597;28;20037;-69
2024/01/22 06:34:29;;;;;;;119.45;46.85;;;;;;;-9.49;100.00;101516.72;5112390;27;20023;-67
2024/01/22 06:36:54;;;;;;;109.30;49.28;;;;;;;-9.42;100.00;101514.25;5112243;28;20043;-69
2024/01/22 06:39:20;;;;;;;102.50;42.22;;;;;;;-9.11;100.00;101517.47;5110840;28;20038;-65
2024/01/22 06:41:45;;;;;;;98.45;38.97;;;;;;;-8.95;100.00;101521.34;5101200;28;20024;-69
2024/01/22 06:44:11;;;;;;;86.22;39.50;;;;;;;-8.83;100.00;101514.66;5105127;28;20031;-70
2024/01/22 06:46:36;;;;;;;101.15;47.00;;;;;;;-9.00;100.00;101513.66;5109969;28;20480;-70
2024/01/22 06:49:05;;;;;;;135.15;50.88;;;;;;;-8.82;100.00;101518.22;5112579;28;20380;-71
2024/01/22 06:51:30;;;;;;;153.43;57.38;;;;;;;-8.76;100.00;101506.75;5108392;28;20479;-70
2024/01/22 06:53:56;;;;;;;151.55;53.10;;;;;;;-8.56;100.00;101520.97;5102151;28;20038;-69
2024/01/22 06:56:22;;;;;;;115.63;48.40;;;;;;;-8.31;100.00;101518.41;5107536;28;20563;-69
2024/01/22 06:58:48;;;;;;;135.55;52.42;;;;;;;-8.22;100.00;101514.75;5109381;28;20031;-67
2024/01/22 07:01:14;;;;;;;153.48;55.00;;;;;;;-7.94;100.00;101519.13;5105591;28;20028;-69
2024/01/22 07:03:39;;;;;;;130.57;54.13;;;;;;;-7.93;100.00;101518.13;5099159;28;20411;-69
2024/01/22 07:06:05;;;;;;;139.65;54.72;;;;;;;-7.62;100.00;101534.72;5107519;28;20028;-68
2024/01/22 07:08:33;;;;;;;157.88;59.90;;;;;;;-7.78;100.00;101537.41;5100409;28;20078;-69
2024/01/22 07:10:59;;;;;;;114.90;48.75;;;;;;;-7.83;100.00;101535.16;5105015;28;20632;-66
2024/01/22 07:13:24;;;;;;;106.72;48.22;;;;;;;-7.79;100.00;101543.81;5104249;28;20032;-74
2024/01/22 07:15:50;;;;;;;73.65;36.10;;;;;;;-7.63;100.00;101543.91;5113528;27;20027;-70
2024/01/22 07:18:16;;;;;;;65.85;31.95;;;;;;;-7.42;100.00;101549.94;5112125;28;20051;-70
2024/01/22 07:20:41;;;;;;;56.95;30.25;;;;;;;-7.46;100.00;101554.84;5109874;28;20047;-73
2024/01/22 07:23:07;;;;;;;93.57;35.88;;;;;;;-7.61;100.00;101546.44;5097938;28;20576;-69
2024/01/22 07:25:36;;;;;;;68.80;33.67;;;;;;;-7.75;100.00;101551.47;5109222;28;20038;-70
2024/01/22 07:28:05;;;;;;;73.72;35.05;;;;;;;-7.53;100.00;101553.81;5110481;28;20055;-73
2024/01/22 07:30:34;;;;;;;59.40;29.70;;;;;;;-7.46;100.00;101554.84;5110687;28;20034;-73
2024/01/22 07:33:00;;;;;;;55.38;28.40;;;;;;;-7.34;100.00;101555.41;5102634;28;20138;-71
2024/01/22 07:35:25;;;;;;;64.93;34.08;;;;;;;-7.30;100.00;101555.91;5108350;28;21311;-69
2024/01/22 07:37:51;;;;;;;69.28;35.58;;;;;;;-7.29;100.00;101553.03;5108965;28;20088;-68
2024/01/22 07:40:18;;;;;;;67.50;31.75;;;;;;;-7.28;100.00;101557.44;5110724;28;20077;-65
2024/01/22 07:42:44;;;;;;;68.38;35.50;;;;;;;-6.94;100.00;101561.94;5098828;28;20525;-63
2024/01/22 07:45:10;;;;;;;64.53;32.35;;;;;;;-6.77;100.00;101551.06;5089066;28;20162;-63
2024/01/22 07:47:36;;;;;;;62.38;29.30;;;;;;;-6.74;100.00;101548.03;5090319;28;20419;-68
2024/01/22 07:50:05;;;;;;;58.35;27.67;;;;;;;-6.67;100.00;101548.19;5090143;28;20020;-68
2024/01/22 07:52:33;;;;;;;56.67;27.60;;;;;;;-6.50;100.00;101552.63;5098589;28;20693;-67
2024/01/22 07:54:59;;;;;;;67.10;31.45;;;;;;;-6.49;100.00;101540.69;5109465;28;20031;-66
2024/01/22 07:57:24;;;;;;;65.50;31.67;;;;;;;-6.72;100.00;101556.88;5109228;28;20034;-69
2024/01/22 07:59:50;;;;;;;67.53;33.95;;;;;;;-6.79;100.00;101553.13;5105358;28;20103;-70
2024/01/22 08:02:16;;;;;;;86.07;40.60;;;;;;;-6.84;100.00;101550.06;5100683;28;20030;-69
2024/01/22 08:04:42;;;;;;;79.55;40.28;;;;;;;-7.06;100.00;101549.69;5105354;28;20059;-69
2024/01/22 08:07:07;;;;;;;72.95;36.30;;;;;;;-7.11;100.00;101563.78;5099251;28;20566;-68
2024/01/22 08:09:35;;;;;;;68.82;33.70;;;;;;;-6.67;100.00;101561.81;5100638;28;20027;-69
2024/01/22 08:12:04;;;;;;;59.50;33.95;;;;;;;-6.65;100.00;101551.59;5097744;28;20027;-72
2024/01/22 08:14:33;;;;;;;75.95;35.08;;;;;;;-6.50;100.00;101549.06;5103388;28;20158;-72
2024/01/22 08:16:59;;;;;;;71.28;37.28;;;;;;;-6.43;100.00;101544.59;5098801;28;20024;-72
2024/01/22 08:19:26;;;;;;;78.85;40.75;;;;;;;-6.49;100.00;101548.03;5100344;28;20028;-78
2024/01/22 08:21:52;;;;;;;70.43;37.53;;;;;;;-6.68;100.00;101541.91;5094002;28;20494;-72
2024/01/22 08:24:18;;;;;;;72.70;36.95;;;;;;;-6.72;100.00;101536.94;5101935;28;20145;-70
2024/01/22 08:26:43;;;;;;;62.58;33.35;;;;;;;-6.44;100.00;101529.28;5097832;28;20103;-74
2024/01/22 08:29:09;;;;;;;65.22;32.83;;;;;;;-6.17;100.00;101535.38;5096899;28;20026;-79
2024/01/22 08:31:34;;;;;;;72.22;34.47;;;;;;;-6.08;100.00;101539.78;5104796;28;20024;-74
2024/01/22 08:34:02;;;;;;;67.07;34.72;;;;;;;-5.93;100.00;101545.34;5100905;28;20032;-78
2024/01/22 08:36:31;;;;;;;76.43;37.92;;;;;;;-5.82;100.00;101535.09;5095725;28;20372;-75
2024/01/22 08:38:56;;;;;;;77.55;40.00;;;;;;;-5.57;100.00;101533.13;5092886;28;20111;-78
2024/01/22 08:41:26;;;;;;;74.35;35.60;;;;;;;-5.21;100.00;101534.50;5085846;28;20020;-80
2024/01/22 08:43:59;;;;;;;84.00;44.95;;;;;;;-5.88;100.00;101531.22;5093998;28;20028;-74
2024/01/22 08:46:25;;;;;;;68.50;36.33;;;;;;;-5.46;100.00;101528.31;5096328;28;20036;-72
2024/01/22 08:48:51;;;;;;;79.72;43.17;;;;;;;-5.72;100.00;101526.72;5108087;28;20164;-74
2024/01/22 08:51:16;;;;;;;81.90;43.90;;;;;;;-5.39;100.00;101526.56;5108873;28;20019;-77
2024/01/22 08:53:41;;;;;;;81.55;43.58;;;;;;;-4.89;99.22;101498.97;5106599;28;20024;-79
2024/01/22 08:56:08;;;;;;;94.85;46.65;;;;;;;-4.84;95.85;101510.19;5098885;28;20114;-73
2024/01/22 08:58:33;;;;;;;89.60;43.28;;;;;;;-4.37;97.16;101500.06;5101461;28;20039;-76
2024/01/22 09:00:59;;;;;;;91.95;45.00;;;;;;;-3.75;96.26;101505.34;5094082;28;20081;-74
2024/01/22 09:03:25;;;;;;;84.93;42.05;;;;;;;-3.41;95.09;101498.41;5098823;28;20020;-74
2024/01/22 09:05:50;;;;;;;88.25;43.55;;;;;;;-3.07;90.56;101505.13;5093365;28;20687;-72
2024/01/22 09:08:16;;;;;;;67.53;37.00;;;;;;;-3.26;88.67;101502.00;5094625;28;20469;-71
2024/01/22 09:10:41;;;;;;;70.88;38.67;;;;;;;-3.40;88.24;101502.84;5093877;28;20032;-71
2024/01/22 09:13:09;;;;;;;81.43;40.13;;;;;;;-3.70;88.11;101500.19;5091875;28;20016;-68
2024/01/22 09:15:35;;;;;;;78.63;39.83;;;;;;;-3.87;90.28;101499.53;5094258;28;20118;-72
2024/01/22 09:18:00;;;;;;;74.57;38.38;;;;;;;-4.38;91.15;101493.72;5093293;28;20106;-70
2024/01/22 09:20:26;;;;;;;68.43;36.33;;;;;;;-3.97;94.07;101489.72;5096308;28;20061;-72
2024/01/22 09:22:51;;;;;;;72.82;39.40;;;;;;;-4.01;94.29;101490.28;5095305;28;20035;-74
2024/01/22 09:25:19;;;;;;;64.88;32.67;;;;;;;-3.65;93.47;101485.94;5101000;28;20049;-74
2024/01/22 09:27:46;;;;;;;70.60;33.80;;;;;;;-3.23;95.29;101489.78;5094586;28;20112;-76
2024/01/22 09:30:12;;;;;;;67.28;36.40;;;;;;;-2.93;93.12;101494.31;5104253;28;20114;-73
2024/01/22 09:32:38;;;;;;;67.38;33.88;;;;;;;-2.56;93.57;101492.31;5100732;28;20032;-70
2024/01/22 09:35:04;;;;;;;56.85;30.33;;;;;;;-3.02;93.06;101485.38;5096281;28;20507;-69
2024/01/22 09:37:29;;;;;;;57.65;31.27;;;;;;;-3.06;94.17;101484.91;5090848;28;20483;-67
2024/01/22 09:39:55;;;;;;;66.65;35.45;;;;;;;-2.50;93.70;101477.84;5094578;28;20019;-72
2024/01/22 09:42:20;;;;;;;57.00;30.10;;;;;;;-2.79;92.91;101474.22;5092336;28;20024;-71
2024/01/22 09:44:47;;;;;;;54.38;29.90;;;;;;;-2.50;95.02;101469.63;5094382;28;20035;-72
2024/01/22 09:47:12;;;;;;;57.60;30.90;;;;;;;-2.57;90.81;101465.97;5092753;28;20571;-71
2024/01/22 09:49:38;;;;;;;64.63;34.47;;;;;;;-2.41;91.89;101456.63;5106206;28;20034;-71
2024/01/22 09:52:04;;;;;;;60.97;31.98;;;;;;;-1.98;91.99;101452.88;5109667;28;20033;-70
2024/01/22 09:54:30;;;;;;;60.92;32.72;;;;;;;-2.10;90.06;101449.00;5107831;28;20122;-72
2024/01/22 09:56:57;;;;;;;64.72;31.88;;;;;;;-1.37;91.26;101437.50;5109293;28;20132;-70
2024/01/22 09:59:28;;;;;;;72.85;41.35;;;;;;;-1.73;90.00;101439.50;5109416;28;20033;-71
2024/01/22 10:01:54;;;;;;;61.47;32.30;;;;;;;-2.30;89.83;101445.09;5109538;28;20023;-71
2024/01/22 10:04:23;;;;;;;68.00;34.92;;;;;;;-1.86;92.23;101434.78;5108435;28;20019;-73
2024/01/22 10:06:50;;;;;;;60.25;34.42;;;;;;;-1.93;90.06;101424.84;5107314;27;20510;-71
2024/01/22 10:09:17;;;;;;;68.35;35.17;;;;;;;-1.40;88.39;101424.19;5108832;28;20034;-71
2024/01/22 10:11:44;;;;;;;65.93;36.17;;;;;;;-0.83;86.01;101418.38;5106623;28;20518;-73
2024/01/22 10:14:10;;;;;;;73.97;39.33;;;;;;;-1.06;85.13;101414.13;5101344;28;20027;-70
2024/01/22 10:16:36;;;;;;;65.22;33.42;;;;;;;-0.77;82.35;101414.75;5103379;28;20377;-70
2024/01/22 10:19:07;;;;;;;73.68;37.85;;;;;;;-1.10;82.65;101415.56;5090556;28;20043;-71
2024/01/22 10:21:34;;;;;;;75.72;38.83;;;;;;;-1.42;81.33;101401.59;5100007;28;20027;-70
2024/01/22 10:24:04;;;;;;;60.53;33.28;;;;;;;-1.89;83.57;101412.41;5100936;28;20050;-69
2024/01/22 10:26:30;;;;;;;67.43;33.70;;;;;;;-2.09;86.80;101396.72;5092523;28;20508;-69
2024/01/22 10:29:22;;;;;;;56.53;29.95;;;;;;;-1.57;85.34;101393.53;5101905;28;20051;-72
2024/01/22 10:31:59;;;;;;;64.30;31.45;;;;;;;-1.06;84.22;101386.66;5102917;28;20522;-72
2024/01/22 10:34:28;;;;;;;74.13;35.75;;;;;;;-1.00;81.56;101391.28;5099928;28;20039;-73
2024/01/22 10:37:07;;;;;;;61.42;31.63;;;;;;;-1.71;83.11;101384.41;5092538;28;20496;-73
2024/01/22 10:39:33;;;;;;;70.28;35.08;;;;;;;-1.42;85.36;101398.84;5104811;28;20042;-73
2024/01/22 10:42:14;;;;;;;67.88;32.15;;;;;;;-1.36;82.90;101399.91;5108487;28;20102;-72
2024/01/22 10:44:44;;;;;;;79.38;37.28;;;;;;;-1.99;84.00;101386.22;5103987;28;20028;-71
2024/01/22 10:47:14;;;;;;;55.97;30.52;;;;;;;-1.85;85.30;101387.09;5097603;28;20032;-70
2024/01/22 10:49:42;;;;;;;69.43;34.90;;;;;;;-1.84;85.03;101379.72;5103723;28;20622;-71
2024/01/22 10:52:08;;;;;;;44.97;27.10;;;;;;;-1.65;85.28;101382.72;5105750;28;20024;-70
2024/01/22 10:54:35;;;;;;;50.17;27.02;;;;;;;-1.53;85.12;101370.09;5105218;28;20019;-68
2024/01/22 10:57:08;;;;;;;57.05;29.58;;;;;;;-1.77;87.52;101377.84;5098017;28;20099;-70